createdAt,value
2023-02-19T00:01:28.720Z,8.90
2023-02-19T00:04:05.121Z,8.90
2023-02-19T00:06:33.341Z,8.80
2023-02-19T00:09:00.817Z,8.80
2023-02-19T00:11:31.619Z,8.80
2023-02-19T00:13:59.561Z,8.70
2023-02-19T00:16:30.366Z,8.70
2023-02-19T00:18:58.376Z,8.80
2023-02-19T00:21:25.658Z,8.70
2023-02-19T00:23:53.892Z,8.80
2023-02-19T00:26:21.280Z,8.90
2023-02-19T00:28:49.938Z,8.80
2023-02-19T00:31:32.465Z,8.80
2023-02-19T00:34:02.280Z,8.80
2023-02-19T00:36:30.551Z,9.00
2023-02-19T00:38:57.520Z,8.90
2023-02-19T00:41:25.061Z,8.90
2023-02-19T00:44:00.733Z,8.90
2023-02-19T00:46:33.218Z,9.00
2023-02-19T00:49:00.713Z,9.10
2023-02-19T00:51:30.890Z,9.00
2023-02-19T00:53:57.691Z,9.00
2023-02-19T00:56:24.800Z,9.10
2023-02-19T00:58:51.725Z,9.20
2023-02-19T01:01:19.023Z,9.10
2023-02-19T01:03:46.578Z,9.20
2023-02-19T01:06:16.217Z,9.20
2023-02-19T01:08:43.607Z,9.20
2023-02-19T01:11:11.668Z,9.20
2023-02-19T01:13:39.187Z,9.10
2023-02-19T01:16:18.435Z,9.20
2023-02-19T01:18:45.784Z,9.30
2023-02-19T01:21:18.642Z,9.20
2023-02-19T01:23:45.784Z,9.20
2023-02-19T01:26:18.557Z,9.10
2023-02-19T01:28:45.996Z,9.10
2023-02-19T01:31:16.012Z,9.20
2023-02-19T01:33:54.082Z,9.20
2023-02-19T01:36:21.212Z,9.10
2023-02-19T01:38:47.977Z,9.10
2023-02-19T01:41:17.784Z,9.10
2023-02-19T01:44:13.765Z,9.10
2023-02-19T01:46:42.593Z,9.10
2023-02-19T01:49:21.250Z,9.10
2023-02-19T01:51:55.274Z,9.10
2023-02-19T01:54:24.552Z,9.00
2023-02-19T01:56:52.233Z,9.10
2023-02-19T01:59:19.223Z,9.00
2023-02-19T02:01:46.038Z,9.00
2023-02-19T02:04:14.945Z,9.00
2023-02-19T02:06:56.108Z,9.00
2023-02-19T02:09:45.508Z,9.00
2023-02-19T02:12:15.190Z,9.00
2023-02-19T02:14:46.620Z,9.00
2023-02-19T02:17:31.066Z,9.00
2023-02-19T02:20:12.940Z,8.90
2023-02-19T02:22:45.750Z,9.00
2023-02-19T02:25:41.092Z,8.90
2023-02-19T02:28:25.808Z,8.90
2023-02-19T02:31:22.671Z,8.90
2023-02-19T02:34:04.275Z,8.90
2023-02-19T02:36:38.353Z,8.90
2023-02-19T02:39:09.091Z,8.90
2023-02-19T02:41:40.901Z,8.80
2023-02-19T02:44:07.573Z,8.90
2023-02-19T02:46:36.829Z,8.90
2023-02-19T02:49:13.021Z,8.80
2023-02-19T02:51:44.945Z,8.80
2023-02-19T02:54:35.058Z,8.80
2023-02-19T02:57:02.905Z,8.80
2023-02-19T02:59:35.749Z,8.80
2023-02-19T03:02:27.826Z,8.80
2023-02-19T03:05:35.647Z,8.80
2023-02-19T03:08:21.196Z,8.80
2023-02-19T03:11:20.169Z,8.80
2023-02-19T03:14:06.188Z,8.80
2023-02-19T03:16:55.591Z,8.80
2023-02-19T03:19:24.929Z,8.90
2023-02-19T03:22:10.777Z,8.80
2023-02-19T03:25:19.056Z,8.70
2023-02-19T03:27:48.641Z,8.80
2023-02-19T03:30:22.950Z,8.70
2023-02-19T03:33:01.700Z,8.70
2023-02-19T03:35:33.093Z,8.70
2023-02-19T03:38:38.044Z,8.70
2023-02-19T03:41:11.237Z,8.60
2023-02-19T03:43:44.581Z,8.60
2023-02-19T03:46:34.013Z,8.70
2023-02-19T03:49:10.498Z,8.60
2023-02-19T03:51:44.033Z,8.60
2023-02-19T03:55:03.157Z,8.50
2023-02-19T03:57:47.833Z,8.40
2023-02-19T04:00:30.278Z,8.30
2023-02-19T04:03:17.597Z,8.10
2023-02-19T04:05:52.464Z,8.00
2023-02-19T04:08:22.625Z,8.00
2023-02-19T04:10:51.421Z,7.90
2023-02-19T04:13:55.440Z,7.90
2023-02-19T04:16:27.668Z,7.70
2023-02-19T04:19:01.645Z,7.80
2023-02-19T04:21:31.455Z,7.70
2023-02-19T04:24:03.974Z,7.70
2023-02-19T04:26:32.284Z,7.70
2023-02-19T04:28:59.131Z,7.80
2023-02-19T04:31:28.169Z,7.70
2023-02-19T04:33:54.901Z,7.70
2023-02-19T04:36:21.568Z,7.60
2023-02-19T04:38:48.297Z,7.50
2023-02-19T04:41:15.055Z,7.50
2023-02-19T04:43:41.737Z,7.50
2023-02-19T04:46:08.522Z,7.40
2023-02-19T04:48:35.212Z,7.40
2023-02-19T04:51:08.578Z,7.50
2023-02-19T04:53:36.110Z,7.40
2023-02-19T04:56:10.465Z,7.40
2023-02-19T04:58:37.381Z,7.40
2023-02-19T05:01:04.782Z,7.40
2023-02-19T05:03:31.970Z,7.30
2023-02-19T05:06:01.913Z,7.40
2023-02-19T05:08:28.597Z,7.40
2023-02-19T05:11:01.679Z,7.40
2023-02-19T05:13:28.950Z,7.40
2023-02-19T05:16:01.597Z,7.50
2023-02-19T05:18:29.884Z,7.30
2023-02-19T05:20:58.622Z,7.30
2023-02-19T05:23:26.269Z,7.10
2023-02-19T05:25:53.267Z,7.20
2023-02-19T05:28:20.604Z,7.30
2023-02-19T05:30:49.582Z,7.40
2023-02-19T05:33:17.800Z,7.30
2023-02-19T05:35:47.175Z,7.30
2023-02-19T05:38:14.244Z,7.30
2023-02-19T05:40:41.240Z,7.40
2023-02-19T11:44:57.142Z,7.30
2023-02-19T11:47:35.829Z,7.30
2023-02-19T11:50:05.246Z,7.20
2023-02-19T11:52:32.177Z,7.20
2023-02-19T11:55:08.195Z,7.10
2023-02-19T11:57:56.196Z,7.10
2023-02-19T12:00:29.350Z,7.00
2023-02-19T12:03:11.396Z,6.90
2023-02-19T12:05:47.434Z,6.90
2023-02-19T12:08:36.054Z,6.90
2023-02-19T12:11:05.942Z,6.80
2023-02-19T12:13:55.631Z,6.80
2023-02-19T12:16:45.590Z,6.90
2023-02-19T12:19:15.092Z,7.00
2023-02-19T12:21:58.652Z,7.10
2023-02-19T12:24:47.132Z,7.10
2023-02-19T12:27:41.584Z,7.10
2023-02-19T12:30:32.892Z,7.10
2023-02-19T12:33:14.827Z,7.10
2023-02-19T12:36:10.971Z,7.10
2023-02-19T12:38:51.575Z,7.10
2023-02-19T12:41:24.927Z,7.10
2023-02-19T12:44:03.897Z,7.10
2023-02-19T12:46:37.542Z,7.10
2023-02-19T12:49:12.029Z,7.10
2023-02-19T12:51:57.685Z,7.20
2023-02-19T12:54:38.193Z,7.20
2023-02-19T12:57:14.348Z,7.20
2023-02-19T12:59:55.217Z,7.20
2023-02-19T13:02:45.252Z,7.20
2023-02-19T13:05:36.935Z,7.20
2023-02-19T13:08:34.761Z,7.30
2023-02-19T13:11:27.248Z,7.40
2023-02-19T13:13:59.684Z,7.40
2023-02-19T13:16:33.174Z,7.50
2023-02-19T13:19:03.055Z,7.60
2023-02-19T13:21:55.400Z,7.70
2023-02-19T13:24:27.649Z,7.80
2023-02-19T13:27:09.481Z,7.90
2023-02-19T13:30:06.271Z,7.90
2023-02-19T13:33:00.868Z,8.00
2023-02-19T13:36:06.255Z,8.20
2023-02-19T13:38:38.167Z,8.30
2023-02-19T13:41:05.316Z,8.40
2023-02-19T13:43:39.920Z,8.60
2023-02-19T13:46:12.326Z,8.50
2023-02-19T13:48:41.271Z,8.40
2023-02-19T13:51:21.507Z,8.40
2023-02-19T13:53:49.433Z,8.40
2023-02-19T13:56:36.798Z,8.40
2023-02-19T13:59:23.266Z,8.40
2023-02-19T14:01:52.671Z,8.40
2023-02-19T14:04:25.491Z,8.30
2023-02-19T14:07:04.499Z,8.30
2023-02-19T14:09:37.378Z,8.30
2023-02-19T14:12:16.140Z,8.30
2023-02-19T14:14:52.661Z,8.20
2023-02-19T14:17:37.186Z,8.20
2023-02-19T14:20:09.843Z,8.20
2023-02-19T14:22:45.696Z,8.10
2023-02-19T14:25:30.481Z,8.00
2023-02-19T14:28:17.134Z,8.00
2023-02-19T14:30:53.741Z,7.90
2023-02-19T14:33:35.712Z,7.80
2023-02-19T14:36:17.372Z,7.80
2023-02-19T14:38:54.264Z,7.80
2023-02-19T14:41:23.346Z,7.70
2023-02-19T14:43:52.408Z,7.60
2023-02-19T14:46:30.090Z,7.70
2023-02-19T14:49:05.522Z,7.60
2023-02-19T14:51:40.260Z,7.60
2023-02-19T14:54:36.657Z,7.60
2023-02-19T14:57:05.174Z,7.70
2023-02-19T14:59:31.899Z,7.70
2023-02-19T15:02:04.352Z,7.70
2023-02-19T15:04:37.035Z,7.70
2023-02-19T15:07:11.626Z,7.50
2023-02-19T15:09:43.683Z,7.50
2023-02-19T15:12:23.583Z,7.60
2023-02-19T15:14:53.352Z,7.50
2023-02-19T15:17:28.651Z,7.50
2023-02-19T15:19:58.890Z,7.50
2023-02-19T15:22:28.251Z,7.60
2023-02-19T15:24:55.669Z,7.60
2023-02-19T15:27:25.209Z,7.60
2023-02-19T15:29:53.888Z,7.60
2023-02-19T15:32:26.633Z,7.80
2023-02-19T15:35:04.741Z,7.70
2023-02-19T15:37:33.757Z,7.50
2023-02-19T15:40:07.281Z,7.60
2023-02-19T15:42:37.119Z,7.60
2023-02-19T15:45:11.548Z,7.60
2023-02-19T15:47:44.719Z,7.50
2023-02-19T15:50:30.616Z,7.50
2023-02-19T15:53:17.580Z,7.50
2023-02-19T15:56:08.040Z,7.60
2023-02-19T15:58:43.008Z,7.50
2023-02-19T16:01:25.303Z,7.50
2023-02-19T16:03:54.051Z,7.50
2023-02-19T16:06:22.599Z,7.40
2023-02-19T16:08:52.160Z,7.30
2023-02-19T16:11:38.332Z,7.30
2023-02-19T16:14:22.932Z,7.20
2023-02-19T16:16:53.845Z,7.30
2023-02-19T16:19:30.045Z,7.30
2023-02-19T16:21:58.406Z,7.40
2023-02-19T16:24:32.142Z,7.40
2023-02-19T16:26:59.187Z,7.30
2023-02-19T16:29:32.236Z,7.30
2023-02-19T16:32:05.465Z,7.20
2023-02-19T16:34:42.467Z,7.20
2023-02-19T16:37:30.852Z,7.20
2023-02-19T16:40:13.638Z,7.20
2023-02-19T16:42:51.659Z,7.20
2023-02-19T16:45:18.750Z,7.20
2023-02-19T16:47:48.200Z,7.20
2023-02-19T16:50:16.789Z,7.20
2023-02-19T16:53:03.961Z,7.10
2023-02-19T16:55:37.391Z,7.10
2023-02-19T16:58:04.097Z,7.10
2023-02-19T17:00:31.926Z,7.00
2023-02-19T17:03:02.451Z,7.00
2023-02-19T17:05:31.529Z,7.00
2023-02-19T17:07:58.442Z,7.00
2023-02-19T17:10:27.358Z,6.90
2023-02-19T17:12:55.717Z,7.00
2023-02-19T17:15:22.956Z,6.90
2023-02-19T17:17:49.681Z,6.90
2023-02-19T17:20:16.359Z,6.90
2023-02-19T17:22:44.784Z,6.90
2023-02-19T17:25:11.625Z,6.90
2023-02-19T17:27:38.412Z,6.80
2023-02-19T17:30:13.987Z,6.90
2023-02-19T17:32:40.725Z,6.90
2023-02-19T17:35:07.689Z,6.90
2023-02-19T17:37:34.370Z,6.90
2023-02-19T17:40:01.047Z,6.90
2023-02-19T17:42:27.840Z,6.90
2023-02-19T17:44:54.621Z,6.90
2023-02-19T17:47:21.804Z,6.90
2023-02-19T17:49:48.516Z,6.90
2023-02-19T17:52:17.621Z,6.80
2023-02-19T17:54:44.428Z,7.00
2023-02-19T17:57:11.154Z,6.90
2023-02-19T17:59:37.956Z,6.90
2023-02-19T18:02:04.674Z,6.90
2023-02-19T18:04:31.387Z,6.90
2023-02-19T18:06:58.311Z,6.90
2023-02-19T18:09:25.060Z,6.90
2023-02-19T18:11:51.784Z,6.90
2023-02-19T18:14:18.570Z,7.00
2023-02-19T18:16:50.439Z,6.90
2023-02-19T18:19:17.700Z,6.90
2023-02-19T18:21:44.595Z,7.00
2023-02-19T18:24:11.354Z,6.80
2023-02-19T18:26:38.020Z,6.80
2023-02-19T18:29:05.544Z,6.80
2023-02-19T18:31:37.511Z,6.80
2023-02-19T18:34:05.680Z,6.80
2023-02-19T18:36:33.125Z,6.90
2023-02-19T18:38:59.816Z,6.80
2023-02-19T18:41:26.504Z,6.80
2023-02-19T18:43:53.280Z,6.80
2023-02-19T18:46:21.447Z,6.80
2023-02-19T18:48:48.183Z,6.70
2023-02-19T18:51:14.920Z,6.70
2023-02-19T18:53:42.863Z,6.80
2023-02-19T18:56:09.642Z,6.60
2023-02-19T18:58:36.369Z,6.70
2023-02-19T19:01:03.324Z,6.60
2023-02-19T19:03:31.416Z,6.70
2023-02-19T19:05:58.564Z,6.70
2023-02-19T19:08:25.521Z,6.80
2023-02-19T19:10:52.234Z,6.70
2023-02-19T19:13:19.026Z,6.70
2023-02-19T19:15:50.945Z,6.70
2023-02-19T19:18:18.391Z,6.60
2023-02-19T19:20:45.103Z,6.70
2023-02-19T19:23:12.418Z,6.60
2023-02-19T19:25:39.272Z,6.60
2023-02-19T19:28:05.935Z,6.70
2023-02-19T19:30:33.666Z,6.70
2023-02-19T19:33:01.724Z,6.60
2023-02-19T19:35:28.690Z,6.60
2023-02-19T19:37:55.405Z,6.70
2023-02-19T19:40:22.147Z,6.70
2023-02-19T19:42:51.311Z,6.70
2023-02-19T19:45:18.441Z,6.80
2023-02-19T19:47:45.408Z,6.80
2023-02-19T19:50:13.216Z,6.90
2023-02-19T19:52:40.061Z,6.90
2023-02-19T19:55:07.244Z,6.90
2023-02-19T19:57:34.080Z,6.90
2023-02-19T20:00:00.891Z,6.90
2023-02-19T20:02:27.824Z,6.80
2023-02-19T20:04:54.597Z,6.90
2023-02-19T20:07:21.389Z,6.90
2023-02-19T20:09:49.247Z,6.90
2023-02-19T20:12:16.962Z,6.90
2023-02-19T20:14:45.754Z,6.80
2023-02-19T20:17:13.165Z,6.90
2023-02-19T20:19:39.940Z,6.80
2023-02-19T20:22:06.670Z,7.00
2023-02-19T20:24:33.382Z,6.90
2023-02-19T20:27:02.509Z,6.90
2023-02-19T20:29:31.445Z,6.90
2023-02-19T20:32:00.008Z,7.00
2023-02-19T20:34:27.148Z,6.90
2023-02-19T20:36:54.292Z,6.90
2023-02-19T20:39:22.022Z,6.90
2023-02-19T20:41:51.474Z,6.90
2023-02-19T20:44:19.242Z,6.90
2023-02-19T20:46:48.740Z,6.80
2023-02-19T20:49:17.153Z,7.00
2023-02-19T20:51:47.598Z,6.90
2023-02-19T20:54:16.177Z,6.90
2023-02-19T20:56:52.389Z,6.90
2023-02-19T20:59:21.399Z,6.90
2023-02-19T21:01:48.619Z,6.90
2023-02-19T21:04:15.894Z,6.90
2023-02-19T21:06:42.621Z,6.90
2023-02-19T21:09:09.295Z,6.80
2023-02-19T21:11:36.509Z,6.90
2023-02-19T21:14:03.399Z,6.90
2023-02-19T21:16:31.940Z,6.90
2023-02-19T21:18:59.537Z,6.80
2023-02-19T21:21:27.002Z,7.00
2023-02-19T21:23:55.469Z,6.90
2023-02-19T21:26:22.915Z,6.90
2023-02-19T21:28:53.601Z,6.90
2023-02-19T21:31:22.427Z,6.90
2023-02-19T21:33:50.073Z,6.90
2023-02-19T21:36:18.744Z,6.80
2023-02-19T21:38:45.459Z,6.80
2023-02-19T21:41:12.110Z,6.90
2023-02-19T21:43:38.797Z,6.90
2023-02-19T21:46:05.548Z,6.80
2023-02-19T21:48:32.322Z,6.80
2023-02-19T21:50:59.060Z,6.80
2023-02-19T21:53:25.823Z,6.80
2023-02-19T21:55:58.742Z,6.80
2023-02-19T21:58:26.600Z,6.80
2023-02-19T22:00:54.143Z,6.80
2023-02-19T22:03:21.091Z,6.80
2023-02-19T22:05:47.780Z,6.80
2023-02-19T22:08:15.904Z,6.70
2023-02-19T22:10:42.743Z,6.80
2023-02-19T22:13:10.363Z,6.80
2023-02-19T22:15:37.422Z,6.80
2023-02-19T22:18:04.394Z,6.80
2023-02-19T22:20:31.169Z,6.70
2023-02-19T22:22:57.882Z,6.70
2023-02-19T22:25:24.590Z,6.70
2023-02-19T22:27:51.366Z,6.70
2023-02-19T22:30:18.251Z,6.70
2023-02-19T22:32:45.075Z,6.80
2023-02-19T22:35:12.418Z,6.70
2023-02-19T22:37:40.021Z,6.70
2023-02-19T22:40:07.621Z,6.70
2023-02-19T22:42:35.971Z,6.70
2023-02-19T22:45:02.912Z,6.70
2023-02-19T22:47:29.700Z,6.70
2023-02-19T22:49:56.400Z,6.70
2023-02-19T22:52:27.856Z,6.70
2023-02-19T22:54:55.727Z,6.70
2023-02-19T22:57:22.597Z,6.70
2023-02-19T22:59:49.372Z,6.70
2023-02-19T23:02:16.102Z,6.70
2023-02-19T23:04:43.616Z,6.60
2023-02-19T23:07:10.363Z,6.70
2023-02-19T23:09:37.103Z,6.70
2023-02-19T23:12:07.414Z,6.70
2023-02-19T23:14:34.868Z,6.70
2023-02-19T23:17:01.900Z,6.50
2023-02-19T23:19:28.651Z,6.60
2023-02-19T23:21:55.677Z,6.70
2023-02-19T23:24:22.382Z,6.70
2023-02-19T23:26:51.778Z,6.50
2023-02-19T23:29:23.791Z,6.80
2023-02-19T23:31:52.078Z,6.60
2023-02-19T23:34:19.453Z,6.80
2023-02-19T23:36:49.330Z,6.60
2023-02-19T23:39:18.613Z,6.80
2023-02-19T23:41:50.836Z,6.70
2023-02-19T23:44:18.175Z,6.60
2023-02-19T23:46:45.293Z,6.60
2023-02-19T23:49:12.972Z,6.60
2023-02-19T23:51:39.694Z,6.60
2023-02-19T23:54:06.862Z,6.60
2023-02-19T23:56:33.947Z,6.70
2023-02-19T23:59:00.676Z,6.60
